sensor_id;sensor_type;location;lat;lon;timestamp;temperature;humidity
46488;DHT22;32202;48.780;9.204;2023-02-11T00:00:34;0.90;89.70
46488;DHT22;32202;48.780;9.204;2023-02-11T00:03:02;0.90;90.00
46488;DHT22;32202;48.780;9.204;2023-02-11T00:05:28;1.00;89.90
46488;DHT22;32202;48.780;9.204;2023-02-11T00:07:53;0.90;90.10
46488;DHT22;32202;48.780;9.204;2023-02-11T00:10:19;0.80;90.60
46488;DHT22;32202;48.780;9.204;2023-02-11T00:12:44;0.80;90.60
46488;DHT22;32202;48.780;9.204;2023-02-11T00:15:10;0.80;90.70
46488;DHT22;32202;48.780;9.204;2023-02-11T00:17:35;0.80;90.80
46488;DHT22;32202;48.780;9.204;2023-02-11T00:20:01;0.70;90.80
46488;DHT22;32202;48.780;9.204;2023-02-11T00:22:27;0.70;91.20
46488;DHT22;32202;48.780;9.204;2023-02-11T00:24:52;0.70;91.50
46488;DHT22;32202;48.780;9.204;2023-02-11T00:27:18;0.70;91.70
46488;DHT22;32202;48.780;9.204;2023-02-11T00:29:44;0.70;91.70
46488;DHT22;32202;48.780;9.204;2023-02-11T00:32:10;0.70;91.50
46488;DHT22;32202;48.780;9.204;2023-02-11T00:34:36;0.60;91.70
46488;DHT22;32202;48.780;9.204;2023-02-11T00:37:02;0.70;92.30
46488;DHT22;32202;48.780;9.204;2023-02-11T00:39:28;0.70;92.30
46488;DHT22;32202;48.780;9.204;2023-02-11T00:41:54;0.70;92.20
46488;DHT22;32202;48.780;9.204;2023-02-11T00:44:20;0.70;92.20
46488;DHT22;32202;48.780;9.204;2023-02-11T00:46:45;0.70;92.00
46488;DHT22;32202;48.780;9.204;2023-02-11T00:49:11;0.70;92.00
46488;DHT22;32202;48.780;9.204;2023-02-11T00:51:36;0.70;92.00
46488;DHT22;32202;48.780;9.204;2023-02-11T00:54:02;0.80;91.60
46488;DHT22;32202;48.780;9.204;2023-02-11T00:56:28;0.80;91.60
46488;DHT22;32202;48.780;9.204;2023-02-11T00:59:02;0.80;92.10
46488;DHT22;32202;48.780;9.204;2023-02-11T01:01:28;0.70;92.40
46488;DHT22;32202;48.780;9.204;2023-02-11T01:03:54;0.60;92.40
46488;DHT22;32202;48.780;9.204;2023-02-11T01:06:20;0.60;92.80
46488;DHT22;32202;48.780;9.204;2023-02-11T01:08:45;0.60;92.90
46488;DHT22;32202;48.780;9.204;2023-02-11T01:11:17;0.60;93.50
46488;DHT22;32202;48.780;9.204;2023-02-11T01:13:43;0.60;92.70
46488;DHT22;32202;48.780;9.204;2023-02-11T01:16:10;0.50;92.70
46488;DHT22;32202;48.780;9.204;2023-02-11T01:18:36;0.40;92.40
46488;DHT22;32202;48.780;9.204;2023-02-11T01:21:02;0.30;92.10
46488;DHT22;32202;48.780;9.204;2023-02-11T01:23:28;0.30;92.00
46488;DHT22;32202;48.780;9.204;2023-02-11T01:25:53;0.30;92.40
46488;DHT22;32202;48.780;9.204;2023-02-11T01:28:22;0.30;92.60
46488;DHT22;32202;48.780;9.204;2023-02-11T01:30:48;0.30;93.10
46488;DHT22;32202;48.780;9.204;2023-02-11T01:33:14;0.30;93.10
46488;DHT22;32202;48.780;9.204;2023-02-11T01:35:40;0.30;93.20
46488;DHT22;32202;48.780;9.204;2023-02-11T01:38:07;0.40;93.30
46488;DHT22;32202;48.780;9.204;2023-02-11T01:40:34;0.50;92.90
46488;DHT22;32202;48.780;9.204;2023-02-11T01:43:00;0.40;92.80
46488;DHT22;32202;48.780;9.204;2023-02-11T01:48:20;0.50;92.80
46488;DHT22;32202;48.780;9.204;2023-02-11T01:50:53;0.50;93.20
46488;DHT22;32202;48.780;9.204;2023-02-11T01:53:21;0.50;93.60
46488;DHT22;32202;48.780;9.204;2023-02-11T01:56:06;0.50;93.70
46488;DHT22;32202;48.780;9.204;2023-02-11T01:58:52;0.50;93.50
46488;DHT22;32202;48.780;9.204;2023-02-11T02:01:23;0.50;93.80
46488;DHT22;32202;48.780;9.204;2023-02-11T02:03:52;0.50;93.50
46488;DHT22;32202;48.780;9.204;2023-02-11T02:06:34;0.50;93.40
46488;DHT22;32202;48.780;9.204;2023-02-11T02:09:13;0.40;93.80
46488;DHT22;32202;48.780;9.204;2023-02-11T02:11:40;0.40;94.10
46488;DHT22;32202;48.780;9.204;2023-02-11T02:14:06;0.40;94.10
46488;DHT22;32202;48.780;9.204;2023-02-11T02:16:35;0.40;94.10
46488;DHT22;32202;48.780;9.204;2023-02-11T02:22:28;0.40;94.00
46488;DHT22;32202;48.780;9.204;2023-02-11T02:25:27;0.50;93.80
46488;DHT22;32202;48.780;9.204;2023-02-11T02:31:11;0.50;93.50
46488;DHT22;32202;48.780;9.204;2023-02-11T02:33:48;0.60;93.30
46488;DHT22;32202;48.780;9.204;2023-02-11T02:36:23;0.70;92.80
46488;DHT22;32202;48.780;9.204;2023-02-11T02:38:59;0.60;92.80
46488;DHT22;32202;48.780;9.204;2023-02-11T02:41:31;0.60;93.00
46488;DHT22;32202;48.780;9.204;2023-02-11T02:43:57;0.60;92.80
46488;DHT22;32202;48.780;9.204;2023-02-11T02:46:29;0.70;92.80
46488;DHT22;32202;48.780;9.204;2023-02-11T02:48:56;0.60;93.30
46488;DHT22;32202;48.780;9.204;2023-02-11T02:54:48;0.60;93.30
46488;DHT22;32202;48.780;9.204;2023-02-11T03:03:04;0.50;93.00
46488;DHT22;32202;48.780;9.204;2023-02-11T03:05:51;0.50;93.30
46488;DHT22;32202;48.780;9.204;2023-02-11T03:08:44;0.60;92.70
46488;DHT22;32202;48.780;9.204;2023-02-11T03:11:11;0.70;92.50
46488;DHT22;32202;48.780;9.204;2023-02-11T03:13:39;0.70;92.40
46488;DHT22;32202;48.780;9.204;2023-02-11T03:16:11;0.60;92.70
46488;DHT22;32202;48.780;9.204;2023-02-11T03:18:41;0.60;92.80
46488;DHT22;32202;48.780;9.204;2023-02-11T03:21:09;0.60;92.60
46488;DHT22;32202;48.780;9.204;2023-02-11T03:26:59;0.50;92.90
46488;DHT22;32202;48.780;9.204;2023-02-11T03:29:14;0.50;92.80
46488;DHT22;32202;48.780;9.204;2023-02-11T03:37:13;0.60;92.90
46488;DHT22;32202;48.780;9.204;2023-02-11T03:39:50;0.60;92.70
46488;DHT22;32202;48.780;9.204;2023-02-11T03:42:18;0.60;92.70
46488;DHT22;32202;48.780;9.204;2023-02-11T03:44:52;0.70;92.60
46488;DHT22;32202;48.780;9.204;2023-02-11T03:47:22;0.70;92.50
46488;DHT22;32202;48.780;9.204;2023-02-11T03:49:50;0.70;92.50
46488;DHT22;32202;48.780;9.204;2023-02-11T03:52:18;0.70;92.50
46488;DHT22;32202;48.780;9.204;2023-02-11T03:54:48;0.70;93.50
46488;DHT22;32202;48.780;9.204;2023-02-11T03:57:15;0.70;95.20
46488;DHT22;32202;48.780;9.204;2023-02-11T03:59:57;0.70;93.70
46488;DHT22;32202;48.780;9.204;2023-02-11T04:02:28;0.70;93.10
46488;DHT22;32202;48.780;9.204;2023-02-11T04:04:54;0.70;92.70
46488;DHT22;32202;48.780;9.204;2023-02-11T04:07:20;0.70;92.80
46488;DHT22;32202;48.780;9.204;2023-02-11T04:09:45;0.90;92.10
46488;DHT22;32202;48.780;9.204;2023-02-11T04:12:11;1.00;91.90
46488;DHT22;32202;48.780;9.204;2023-02-11T04:14:37;1.00;91.70
46488;DHT22;32202;48.780;9.204;2023-02-11T04:17:03;1.10;91.50
46488;DHT22;32202;48.780;9.204;2023-02-11T04:19:28;1.00;91.60
46488;DHT22;32202;48.780;9.204;2023-02-11T04:21:55;1.00;91.50
46488;DHT22;32202;48.780;9.204;2023-02-11T04:24:20;1.10;91.40
46488;DHT22;32202;48.780;9.204;2023-02-11T04:26:46;1.10;91.50
46488;DHT22;32202;48.780;9.204;2023-02-11T04:29:11;1.10;91.40
46488;DHT22;32202;48.780;9.204;2023-02-11T04:31:37;1.20;91.30
46488;DHT22;32202;48.780;9.204;2023-02-11T04:34:03;1.20;91.20
46488;DHT22;32202;48.780;9.204;2023-02-11T04:36:28;1.30;91.20
46488;DHT22;32202;48.780;9.204;2023-02-11T04:38:54;1.40;90.80
46488;DHT22;32202;48.780;9.204;2023-02-11T04:41:19;1.40;90.50
46488;DHT22;32202;48.780;9.204;2023-02-11T04:43:45;1.50;90.30
46488;DHT22;32202;48.780;9.204;2023-02-11T04:46:10;1.60;90.20
46488;DHT22;32202;48.780;9.204;2023-02-11T04:48:36;1.60;90.00
46488;DHT22;32202;48.780;9.204;2023-02-11T04:51:02;1.70;90.00
46488;DHT22;32202;48.780;9.204;2023-02-11T04:53:28;1.60;90.00
46488;DHT22;32202;48.780;9.204;2023-02-11T04:55:53;1.70;90.00
46488;DHT22;32202;48.780;9.204;2023-02-11T04:58:19;1.80;89.60
46488;DHT22;32202;48.780;9.204;2023-02-11T05:00:45;1.80;89.10
46488;DHT22;32202;48.780;9.204;2023-02-11T05:03:11;1.80;88.50
46488;DHT22;32202;48.780;9.204;2023-02-11T05:05:39;1.80;88.70
46488;DHT22;32202;48.780;9.204;2023-02-11T05:08:05;1.80;88.50
46488;DHT22;32202;48.780;9.204;2023-02-11T05:10:31;1.90;88.30
46488;DHT22;32202;48.780;9.204;2023-02-11T05:12:57;1.90;88.00
46488;DHT22;32202;48.780;9.204;2023-02-11T05:15:22;2.00;87.40
46488;DHT22;32202;48.780;9.204;2023-02-11T05:17:48;1.90;87.30
46488;DHT22;32202;48.780;9.204;2023-02-11T05:20:13;1.80;86.90
46488;DHT22;32202;48.780;9.204;2023-02-11T05:22:39;1.70;88.70
46488;DHT22;32202;48.780;9.204;2023-02-11T05:25:05;1.70;89.40
46488;DHT22;32202;48.780;9.204;2023-02-11T05:27:31;1.50;90.00
46488;DHT22;32202;48.780;9.204;2023-02-11T05:29:56;1.50;90.20
46488;DHT22;32202;48.780;9.204;2023-02-11T05:32:22;1.60;90.20
46488;DHT22;32202;48.780;9.204;2023-02-11T05:34:47;1.70;90.00
46488;DHT22;32202;48.780;9.204;2023-02-11T05:37:13;1.80;89.50
46488;DHT22;32202;48.780;9.204;2023-02-11T05:39:39;1.80;89.00
46488;DHT22;32202;48.780;9.204;2023-02-11T05:42:04;1.80;88.60
46488;DHT22;32202;48.780;9.204;2023-02-11T05:44:30;1.80;88.10
46488;DHT22;32202;48.780;9.204;2023-02-11T05:46:55;1.80;86.90
46488;DHT22;32202;48.780;9.204;2023-02-11T05:49:21;1.80;86.90
46488;DHT22;32202;48.780;9.204;2023-02-11T05:51:47;1.80;87.10
46488;DHT22;32202;48.780;9.204;2023-02-11T05:54:12;1.70;89.00
46488;DHT22;32202;48.780;9.204;2023-02-11T05:56:38;1.60;88.80
46488;DHT22;32202;48.780;9.204;2023-02-11T05:59:04;1.70;88.70
46488;DHT22;32202;48.780;9.204;2023-02-11T06:01:29;1.70;88.90
46488;DHT22;32202;48.780;9.204;2023-02-11T06:03:55;1.80;87.70
46488;DHT22;32202;48.780;9.204;2023-02-11T06:06:21;1.90;87.20
46488;DHT22;32202;48.780;9.204;2023-02-11T06:08:46;1.90;86.60
46488;DHT22;32202;48.780;9.204;2023-02-11T06:11:14;2.00;86.60
46488;DHT22;32202;48.780;9.204;2023-02-11T06:13:40;2.00;86.40
46488;DHT22;32202;48.780;9.204;2023-02-11T06:16:06;2.00;86.40
46488;DHT22;32202;48.780;9.204;2023-02-11T06:18:31;2.00;86.20
46488;DHT22;32202;48.780;9.204;2023-02-11T06:20:58;2.00;85.90
46488;DHT22;32202;48.780;9.204;2023-02-11T06:23:24;2.00;86.80
46488;DHT22;32202;48.780;9.204;2023-02-11T06:25:50;2.00;86.00
46488;DHT22;32202;48.780;9.204;2023-02-11T06:28:16;2.00;85.70
46488;DHT22;32202;48.780;9.204;2023-02-11T06:30:41;2.10;85.60
46488;DHT22;32202;48.780;9.204;2023-02-11T06:33:07;2.00;85.80
46488;DHT22;32202;48.780;9.204;2023-02-11T06:35:33;1.80;87.00
46488;DHT22;32202;48.780;9.204;2023-02-11T06:38:00;1.90;90.70
46488;DHT22;32202;48.780;9.204;2023-02-11T06:40:26;2.00;88.50
46488;DHT22;32202;48.780;9.204;2023-02-11T06:42:51;2.10;87.40
46488;DHT22;32202;48.780;9.204;2023-02-11T06:45:17;2.10;87.00
46488;DHT22;32202;48.780;9.204;2023-02-11T06:47:43;2.10;87.00
46488;DHT22;32202;48.780;9.204;2023-02-11T06:50:12;2.20;86.50
46488;DHT22;32202;48.780;9.204;2023-02-11T06:52:38;2.20;86.40
46488;DHT22;32202;48.780;9.204;2023-02-11T06:55:04;2.20;86.10
46488;DHT22;32202;48.780;9.204;2023-02-11T06:57:30;2.20;86.00
46488;DHT22;32202;48.780;9.204;2023-02-11T06:59:56;2.20;85.50
46488;DHT22;32202;48.780;9.204;2023-02-11T07:02:21;2.20;85.60
46488;DHT22;32202;48.780;9.204;2023-02-11T07:04:47;2.20;85.80
46488;DHT22;32202;48.780;9.204;2023-02-11T07:07:13;2.10;85.80
46488;DHT22;32202;48.780;9.204;2023-02-11T07:09:38;2.10;85.90
46488;DHT22;32202;48.780;9.204;2023-02-11T07:12:04;2.10;86.00
46488;DHT22;32202;48.780;9.204;2023-02-11T07:14:29;2.20;85.70
46488;DHT22;32202;48.780;9.204;2023-02-11T07:16:55;2.30;85.80
46488;DHT22;32202;48.780;9.204;2023-02-11T07:19:21;2.20;86.30
46488;DHT22;32202;48.780;9.204;2023-02-11T07:21:46;2.20;87.00
46488;DHT22;32202;48.780;9.204;2023-02-11T07:24:13;2.40;86.60
46488;DHT22;32202;48.780;9.204;2023-02-11T07:26:39;2.40;86.20
46488;DHT22;32202;48.780;9.204;2023-02-11T07:29:04;2.50;85.70
46488;DHT22;32202;48.780;9.204;2023-02-11T07:31:30;2.60;85.20
46488;DHT22;32202;48.780;9.204;2023-02-11T07:33:58;2.70;84.70
46488;DHT22;32202;48.780;9.204;2023-02-11T07:36:24;2.90;83.70
46488;DHT22;32202;48.780;9.204;2023-02-11T07:38:50;3.00;83.10
46488;DHT22;32202;48.780;9.204;2023-02-11T07:41:19;3.20;82.20
46488;DHT22;32202;48.780;9.204;2023-02-11T07:43:45;3.30;81.40
46488;DHT22;32202;48.780;9.204;2023-02-11T07:46:14;3.40;80.50
46488;DHT22;32202;48.780;9.204;2023-02-11T07:48:40;3.50;80.10
46488;DHT22;32202;48.780;9.204;2023-02-11T07:51:32;3.50;79.30
46488;DHT22;32202;48.780;9.204;2023-02-11T07:53:58;3.50;79.20
46488;DHT22;32202;48.780;9.204;2023-02-11T07:56:24;3.50;79.40
46488;DHT22;32202;48.780;9.204;2023-02-11T07:58:50;3.60;80.00
46488;DHT22;32202;48.780;9.204;2023-02-11T08:01:21;3.60;79.80
46488;DHT22;32202;48.780;9.204;2023-02-11T08:03:49;3.70;79.50
46488;DHT22;32202;48.780;9.204;2023-02-11T08:06:21;3.80;79.30
46488;DHT22;32202;48.780;9.204;2023-02-11T08:08:50;4.00;78.70
46488;DHT22;32202;48.780;9.204;2023-02-11T08:11:24;4.30;77.70
46488;DHT22;32202;48.780;9.204;2023-02-11T08:13:50;4.50;77.10
46488;DHT22;32202;48.780;9.204;2023-02-11T08:16:21;4.60;76.40
46488;DHT22;32202;48.780;9.204;2023-02-11T08:18:48;4.80;75.50
46488;DHT22;32202;48.780;9.204;2023-02-11T08:21:18;4.90;74.50
46488;DHT22;32202;48.780;9.204;2023-02-11T08:23:45;5.00;73.70
46488;DHT22;32202;48.780;9.204;2023-02-11T08:26:16;5.00;73.90
46488;DHT22;32202;48.780;9.204;2023-02-11T08:28:43;5.10;73.40
46488;DHT22;32202;48.780;9.204;2023-02-11T08:31:15;5.20;72.50
46488;DHT22;32202;48.780;9.204;2023-02-11T08:33:42;5.40;71.80
46488;DHT22;32202;48.780;9.204;2023-02-11T08:36:10;5.60;70.80
46488;DHT22;32202;48.780;9.204;2023-02-11T08:38:36;5.80;70.10
46488;DHT22;32202;48.780;9.204;2023-02-11T08:41:02;6.20;68.70
46488;DHT22;32202;48.780;9.204;2023-02-11T08:43:28;6.40;67.40
46488;DHT22;32202;48.780;9.204;2023-02-11T08:45:54;6.50;67.30
46488;DHT22;32202;48.780;9.204;2023-02-11T08:48:19;6.40;66.60
46488;DHT22;32202;48.780;9.204;2023-02-11T08:50:45;6.60;66.70
46488;DHT22;32202;48.780;9.204;2023-02-11T08:53:11;6.80;66.40
46488;DHT22;32202;48.780;9.204;2023-02-11T08:55:36;7.00;65.60
46488;DHT22;32202;48.780;9.204;2023-02-11T08:58:02;6.70;66.00
46488;DHT22;32202;48.780;9.204;2023-02-11T09:00:28;7.00;65.80
46488;DHT22;32202;48.780;9.204;2023-02-11T09:02:54;7.10;65.40
46488;DHT22;32202;48.780;9.204;2023-02-11T09:05:19;7.30;64.90
46488;DHT22;32202;48.780;9.204;2023-02-11T09:07:46;8.10;63.80
46488;DHT22;32202;48.780;9.204;2023-02-11T09:10:11;9.60;59.80
46488;DHT22;32202;48.780;9.204;2023-02-11T09:12:37;10.80;56.70
46488;DHT22;32202;48.780;9.204;2023-02-11T09:15:03;12.80;52.30
46488;DHT22;32202;48.780;9.204;2023-02-11T09:17:28;14.80;47.60
46488;DHT22;32202;48.780;9.204;2023-02-11T09:19:54;16.70;43.30
46488;DHT22;32202;48.780;9.204;2023-02-11T09:22:19;18.10;40.30
46488;DHT22;32202;48.780;9.204;2023-02-11T09:24:45;18.90;39.20
46488;DHT22;32202;48.780;9.204;2023-02-11T09:27:10;19.80;38.20
46488;DHT22;32202;48.780;9.204;2023-02-11T09:29:36;21.00;36.60
46488;DHT22;32202;48.780;9.204;2023-02-11T09:32:02;21.80;35.60
46488;DHT22;32202;48.780;9.204;2023-02-11T09:34:27;22.60;34.50
46488;DHT22;32202;48.780;9.204;2023-02-11T09:36:53;23.30;33.40
46488;DHT22;32202;48.780;9.204;2023-02-11T09:39:19;23.40;33.20
46488;DHT22;32202;48.780;9.204;2023-02-11T09:42:12;22.80;33.40
46488;DHT22;32202;48.780;9.204;2023-02-11T09:44:44;23.00;33.50
46488;DHT22;32202;48.780;9.204;2023-02-11T09:47:27;23.90;32.30
46488;DHT22;32202;48.780;9.204;2023-02-11T09:49:59;24.60;31.70
46488;DHT22;32202;48.780;9.204;2023-02-11T09:52:29;24.80;31.20
46488;DHT22;32202;48.780;9.204;2023-02-11T09:54:57;25.00;31.00
46488;DHT22;32202;48.780;9.204;2023-02-11T09:57:32;24.80;30.90
46488;DHT22;32202;48.780;9.204;2023-02-11T10:05:47;24.80;30.90
46488;DHT22;32202;48.780;9.204;2023-02-11T10:08:52;25.70;30.50
46488;DHT22;32202;48.780;9.204;2023-02-11T10:11:48;26.80;29.80
46488;DHT22;32202;48.780;9.204;2023-02-11T10:14:35;27.40;29.40
46488;DHT22;32202;48.780;9.204;2023-02-11T10:23:26;26.70;29.70
46488;DHT22;32202;48.780;9.204;2023-02-11T10:25:54;27.10;29.60
46488;DHT22;32202;48.780;9.204;2023-02-11T10:28:35;27.80;29.30
46488;DHT22;32202;48.780;9.204;2023-02-11T10:31:04;28.30;29.20
46488;DHT22;32202;48.780;9.204;2023-02-11T10:36:16;29.20;28.60
46488;DHT22;32202;48.780;9.204;2023-02-11T10:38:42;29.70;28.50
46488;DHT22;32202;48.780;9.204;2023-02-11T10:41:12;29.70;28.40
46488;DHT22;32202;48.780;9.204;2023-02-11T10:43:40;30.20;28.10
46488;DHT22;32202;48.780;9.204;2023-02-11T10:46:15;30.20;28.10
46488;DHT22;32202;48.780;9.204;2023-02-11T10:48:50;30.10;28.20
46488;DHT22;32202;48.780;9.204;2023-02-11T10:51:19;30.00;28.10
46488;DHT22;32202;48.780;9.204;2023-02-11T10:53:50;29.80;28.10
46488;DHT22;32202;48.780;9.204;2023-02-11T10:56:47;30.10;28.20
46488;DHT22;32202;48.780;9.204;2023-02-11T10:59:36;30.90;27.90
46488;DHT22;32202;48.780;9.204;2023-02-11T11:02:23;31.10;27.70
46488;DHT22;32202;48.780;9.204;2023-02-11T11:04:57;30.70;27.80
46488;DHT22;32202;48.780;9.204;2023-02-11T11:07:31;31.10;27.70
46488;DHT22;32202;48.780;9.204;2023-02-11T11:10:06;30.80;27.90
46488;DHT22;32202;48.780;9.204;2023-02-11T11:17:37;30.90;27.80
46488;DHT22;32202;48.780;9.204;2023-02-11T11:22:49;30.60;27.90
46488;DHT22;32202;48.780;9.204;2023-02-11T11:25:25;31.20;27.70
46488;DHT22;32202;48.780;9.204;2023-02-11T11:27:54;31.70;27.80
46488;DHT22;32202;48.780;9.204;2023-02-11T11:30:30;32.30;27.40
46488;DHT22;32202;48.780;9.204;2023-02-11T11:32:57;32.50;27.30
46488;DHT22;32202;48.780;9.204;2023-02-11T11:35:27;32.30;27.40
46488;DHT22;32202;48.780;9.204;2023-02-11T11:38:00;32.80;27.30
46488;DHT22;32202;48.780;9.204;2023-02-11T11:40:33;33.00;27.20
46488;DHT22;32202;48.780;9.204;2023-02-11T11:45:37;33.60;27.10
46488;DHT22;32202;48.780;9.204;2023-02-11T11:48:18;33.00;27.20
46488;DHT22;32202;48.780;9.204;2023-02-11T11:51:00;33.20;27.30
46488;DHT22;32202;48.780;9.204;2023-02-11T11:53:38;33.00;27.40
46488;DHT22;32202;48.780;9.204;2023-02-11T11:56:21;34.00;27.10
46488;DHT22;32202;48.780;9.204;2023-02-11T11:58:48;34.20;26.90
46488;DHT22;32202;48.780;9.204;2023-02-11T12:01:36;33.30;27.40
46488;DHT22;32202;48.780;9.204;2023-02-11T12:07:15;34.30;27.20
46488;DHT22;32202;48.780;9.204;2023-02-11T12:12:29;32.40;27.80
46488;DHT22;32202;48.780;9.204;2023-02-11T12:15:07;31.40;27.60
46488;DHT22;32202;48.780;9.204;2023-02-11T12:17:54;30.80;27.90
46488;DHT22;32202;48.780;9.204;2023-02-11T12:23:30;30.00;28.40
46488;DHT22;32202;48.780;9.204;2023-02-11T12:26:43;30.40;28.30
46488;DHT22;32202;48.780;9.204;2023-02-11T12:32:13;28.90;29.00
46488;DHT22;32202;48.780;9.204;2023-02-11T12:43:05;25.20;31.60
46488;DHT22;32202;48.780;9.204;2023-02-11T12:45:45;24.30;32.50
46488;DHT22;32202;48.780;9.204;2023-02-11T12:48:38;23.20;33.50
46488;DHT22;32202;48.780;9.204;2023-02-11T12:53:54;21.40;35.90
46488;DHT22;32202;48.780;9.204;2023-02-11T13:02:20;20.40;37.60
46488;DHT22;32202;48.780;9.204;2023-02-11T13:04:55;20.30;37.80
46488;DHT22;32202;48.780;9.204;2023-02-11T13:07:29;20.00;38.00
46488;DHT22;32202;48.780;9.204;2023-02-11T13:12:42;19.20;39.30
46488;DHT22;32202;48.780;9.204;2023-02-11T13:15:30;19.00;39.60
46488;DHT22;32202;48.780;9.204;2023-02-11T13:23:50;20.40;38.20
46488;DHT22;32202;48.780;9.204;2023-02-11T13:26:26;20.30;38.40
46488;DHT22;32202;48.780;9.204;2023-02-11T13:31:25;20.10;40.00
46488;DHT22;32202;48.780;9.204;2023-02-11T13:33:53;19.80;40.50
46488;DHT22;32202;48.780;9.204;2023-02-11T13:36:28;20.00;40.30
46488;DHT22;32202;48.780;9.204;2023-02-11T13:39:03;20.20;39.90
46488;DHT22;32202;48.780;9.204;2023-02-11T13:41:36;20.00;40.20
46488;DHT22;32202;48.780;9.204;2023-02-11T13:47:01;18.90;41.70
46488;DHT22;32202;48.780;9.204;2023-02-11T13:49:40;19.00;42.10
46488;DHT22;32202;48.780;9.204;2023-02-11T13:52:33;20.30;40.60
46488;DHT22;32202;48.780;9.204;2023-02-11T13:55:21;21.60;38.90
46488;DHT22;32202;48.780;9.204;2023-02-11T14:22:03;25.10;34.50
46488;DHT22;32202;48.780;9.204;2023-02-11T14:35:33;23.30;36.30
46488;DHT22;32202;48.780;9.204;2023-02-11T14:40:40;23.70;35.80
46488;DHT22;32202;48.780;9.204;2023-02-11T14:43:18;24.00;35.30
46488;DHT22;32202;48.780;9.204;2023-02-11T14:45:49;23.50;35.90
46488;DHT22;32202;48.780;9.204;2023-02-11T14:48:17;22.50;37.90
46488;DHT22;32202;48.780;9.204;2023-02-11T14:51:02;22.00;37.50
46488;DHT22;32202;48.780;9.204;2023-02-11T14:53:32;21.40;38.20
46488;DHT22;32202;48.780;9.204;2023-02-11T14:55:58;22.10;37.50
46488;DHT22;32202;48.780;9.204;2023-02-11T14:58:27;22.00;37.40
46488;DHT22;32202;48.780;9.204;2023-02-11T15:00:59;21.80;37.90
46488;DHT22;32202;48.780;9.204;2023-02-11T15:03:38;21.70;37.60
46488;DHT22;32202;48.780;9.204;2023-02-11T15:06:20;21.50;37.70
46488;DHT22;32202;48.780;9.204;2023-02-11T15:08:54;21.60;38.10
46488;DHT22;32202;48.780;9.204;2023-02-11T15:11:23;20.80;38.30
46488;DHT22;32202;48.780;9.204;2023-02-11T15:13:49;20.50;38.70
46488;DHT22;32202;48.780;9.204;2023-02-11T15:16:19;20.20;39.20
46488;DHT22;32202;48.780;9.204;2023-02-11T15:18:49;19.40;40.50
46488;DHT22;32202;48.780;9.204;2023-02-11T15:21:29;19.10;41.30
46488;DHT22;32202;48.780;9.204;2023-02-11T15:24:00;19.00;41.70
46488;DHT22;32202;48.780;9.204;2023-02-11T15:26:27;18.30;42.70
46488;DHT22;32202;48.780;9.204;2023-02-11T15:28:53;18.40;42.70
46488;DHT22;32202;48.780;9.204;2023-02-11T15:31:22;17.90;43.30
46488;DHT22;32202;48.780;9.204;2023-02-11T15:33:49;18.10;43.40
46488;DHT22;32202;48.780;9.204;2023-02-11T15:36:16;17.80;43.20
46488;DHT22;32202;48.780;9.204;2023-02-11T15:38:42;17.30;44.30
46488;DHT22;32202;48.780;9.204;2023-02-11T15:41:37;16.90;44.90
46488;DHT22;32202;48.780;9.204;2023-02-11T15:44:03;16.80;45.10
46488;DHT22;32202;48.780;9.204;2023-02-11T15:46:37;16.40;45.80
46488;DHT22;32202;48.780;9.204;2023-02-11T15:49:04;15.40;47.40
46488;DHT22;32202;48.780;9.204;2023-02-11T15:51:34;14.50;50.20
46488;DHT22;32202;48.780;9.204;2023-02-11T15:54:16;14.00;51.30
46488;DHT22;32202;48.780;9.204;2023-02-11T15:56:45;13.50;52.10
46488;DHT22;32202;48.780;9.204;2023-02-11T15:59:39;13.20;53.30
46488;DHT22;32202;48.780;9.204;2023-02-11T16:04:52;12.80;54.70
46488;DHT22;32202;48.780;9.204;2023-02-11T16:10:30;12.30;55.60
46488;DHT22;32202;48.780;9.204;2023-02-11T16:18:01;11.80;57.00
46488;DHT22;32202;48.780;9.204;2023-02-11T16:20:28;11.70;57.10
46488;DHT22;32202;48.780;9.204;2023-02-11T16:22:54;11.70;57.30
46488;DHT22;32202;48.780;9.204;2023-02-11T16:25:21;11.60;57.70
46488;DHT22;32202;48.780;9.204;2023-02-11T16:27:48;11.50;58.10
46488;DHT22;32202;48.780;9.204;2023-02-11T16:30:22;11.40;58.60
46488;DHT22;32202;48.780;9.204;2023-02-11T16:32:52;11.40;58.80
46488;DHT22;32202;48.780;9.204;2023-02-11T16:35:18;11.30;59.50
46488;DHT22;32202;48.780;9.204;2023-02-11T16:37:44;11.10;59.70
46488;DHT22;32202;48.780;9.204;2023-02-11T16:40:10;11.10;59.90
46488;DHT22;32202;48.780;9.204;2023-02-11T16:42:36;11.00;60.00
46488;DHT22;32202;48.780;9.204;2023-02-11T16:45:02;11.00;60.10
46488;DHT22;32202;48.780;9.204;2023-02-11T16:47:28;10.90;60.40
46488;DHT22;32202;48.780;9.204;2023-02-11T16:49:55;10.80;60.70
46488;DHT22;32202;48.780;9.204;2023-02-11T16:52:22;10.70;60.80
46488;DHT22;32202;48.780;9.204;2023-02-11T16:54:48;10.70;61.00
46488;DHT22;32202;48.780;9.204;2023-02-11T16:57:17;10.70;61.30
46488;DHT22;32202;48.780;9.204;2023-02-11T16:59:43;10.60;61.30
46488;DHT22;32202;48.780;9.204;2023-02-11T17:02:21;10.60;61.50
46488;DHT22;32202;48.780;9.204;2023-02-11T17:04:47;10.60;61.60
46488;DHT22;32202;48.780;9.204;2023-02-11T17:07:13;10.50;62.00
46488;DHT22;32202;48.780;9.204;2023-02-11T17:09:39;10.50;62.20
46488;DHT22;32202;48.780;9.204;2023-02-11T17:12:05;10.50;62.30
46488;DHT22;32202;48.780;9.204;2023-02-11T17:14:30;10.50;62.40
46488;DHT22;32202;48.780;9.204;2023-02-11T17:16:56;10.40;62.50
46488;DHT22;32202;48.780;9.204;2023-02-11T17:19:22;10.40;62.90
46488;DHT22;32202;48.780;9.204;2023-02-11T17:21:50;10.40;63.00
46488;DHT22;32202;48.780;9.204;2023-02-11T17:24:17;10.40;63.00
46488;DHT22;32202;48.780;9.204;2023-02-11T17:26:43;10.40;63.20
46488;DHT22;32202;48.780;9.204;2023-02-11T17:29:11;10.30;63.30
46488;DHT22;32202;48.780;9.204;2023-02-11T17:31:38;10.30;63.50
46488;DHT22;32202;48.780;9.204;2023-02-11T17:34:04;10.20;63.80
46488;DHT22;32202;48.780;9.204;2023-02-11T17:36:30;10.20;64.10
46488;DHT22;32202;48.780;9.204;2023-02-11T17:38:59;10.20;64.10
46488;DHT22;32202;48.780;9.204;2023-02-11T17:41:25;10.20;64.50
46488;DHT22;32202;48.780;9.204;2023-02-11T17:43:51;10.10;65.00
46488;DHT22;32202;48.780;9.204;2023-02-11T17:46:16;10.00;64.90
46488;DHT22;32202;48.780;9.204;2023-02-11T17:48:43;10.00;65.20
46488;DHT22;32202;48.780;9.204;2023-02-11T17:51:30;10.00;65.30
46488;DHT22;32202;48.780;9.204;2023-02-11T17:53:57;10.00;65.40
46488;DHT22;32202;48.780;9.204;2023-02-11T17:56:24;10.00;65.60
46488;DHT22;32202;48.780;9.204;2023-02-11T17:58:49;10.00;65.50
46488;DHT22;32202;48.780;9.204;2023-02-11T18:01:15;10.00;65.40
46488;DHT22;32202;48.780;9.204;2023-02-11T18:03:40;10.00;65.50
46488;DHT22;32202;48.780;9.204;2023-02-11T18:06:06;10.00;65.90
46488;DHT22;32202;48.780;9.204;2023-02-11T18:08:33;9.90;66.20
46488;DHT22;32202;48.780;9.204;2023-02-11T18:10:59;9.90;66.40
46488;DHT22;32202;48.780;9.204;2023-02-11T18:13:25;9.80;66.70
46488;DHT22;32202;48.780;9.204;2023-02-11T18:15:51;9.80;67.00
46488;DHT22;32202;48.780;9.204;2023-02-11T18:18:17;9.80;66.90